sensor_id;sensor_type;location;lat;lon;timestamp;pressure;altitude;pressure_sealevel;temperature;humidity
56006;BME280;41888;44.696;10.522;2023-09-19T00:01:40;100090.28;;;20.48;100.00
56006;BME280;41888;44.696;10.522;2023-09-19T00:04:07;100081.34;;;20.53;100.00
56006;BME280;41888;44.696;10.522;2023-09-19T00:06:38;100082.19;;;20.48;100.00
56006;BME280;41888;44.696;10.522;2023-09-19T00:12:27;100101.38;;;20.42;100.00
56006;BME280;41888;44.696;10.522;2023-09-19T00:14:53;100104.41;;;20.35;100.00
56006;BME280;41888;44.696;10.522;2023-09-19T00:17:19;100097.66;;;20.28;100.00
56006;BME280;41888;44.696;10.522;2023-09-19T00:19:46;100102.53;;;20.20;100.00
56006;BME280;41888;44.696;10.522;2023-09-19T00:22:17;100092.59;;;20.01;100.00
56006;BME280;41888;44.696;10.522;2023-09-19T00:24:44;100099.63;;;20.02;100.00
56006;BME280;41888;44.696;10.522;2023-09-19T00:27:11;100093.94;;;20.08;100.00
56006;BME280;41888;44.696;10.522;2023-09-19T00:29:38;100096.38;;;20.05;100.00
56006;BME280;41888;44.696;10.522;2023-09-19T00:32:06;100102.31;;;20.12;100.00
56006;BME280;41888;44.696;10.522;2023-09-19T00:34:33;100095.84;;;20.08;100.00
56006;BME280;41888;44.696;10.522;2023-09-19T00:37:00;100100.69;;;20.06;100.00
56006;BME280;41888;44.696;10.522;2023-09-19T00:39:26;100093.38;;;20.11;100.00
56006;BME280;41888;44.696;10.522;2023-09-19T00:41:53;100090.41;;;20.18;100.00
56006;BME280;41888;44.696;10.522;2023-09-19T00:44:20;100088.22;;;20.15;100.00
56006;BME280;41888;44.696;10.522;2023-09-19T00:46:49;100092.84;;;20.04;100.00
56006;BME280;41888;44.696;10.522;2023-09-19T00:49:16;100085.06;;;20.03;100.00
56006;BME280;41888;44.696;10.522;2023-09-19T00:51:43;100081.84;;;19.91;100.00
56006;BME280;41888;44.696;10.522;2023-09-19T00:54:13;100086.22;;;19.51;100.00
56006;BME280;41888;44.696;10.522;2023-09-19T01:00:08;100086.75;;;19.23;100.00
56006;BME280;41888;44.696;10.522;2023-09-19T01:02:38;100080.28;;;19.09;100.00
56006;BME280;41888;44.696;10.522;2023-09-19T01:05:05;100087.03;;;19.06;100.00
56006;BME280;41888;44.696;10.522;2023-09-19T01:07:32;100092.16;;;19.03;100.00
56006;BME280;41888;44.696;10.522;2023-09-19T01:10:03;100076.22;;;19.01;100.00
56006;BME280;41888;44.696;10.522;2023-09-19T01:12:52;100078.66;;;18.92;100.00
56006;BME280;41888;44.696;10.522;2023-09-19T01:15:23;100075.66;;;18.89;100.00
56006;BME280;41888;44.696;10.522;2023-09-19T01:24:27;100068.91;;;18.71;100.00
56006;BME280;41888;44.696;10.522;2023-09-19T01:29:48;100079.41;;;18.68;100.00
56006;BME280;41888;44.696;10.522;2023-09-19T01:32:19;100070.50;;;18.62;100.00
56006;BME280;41888;44.696;10.522;2023-09-19T01:34:54;100060.56;;;18.73;100.00
56006;BME280;41888;44.696;10.522;2023-09-19T01:37:22;100053.28;;;18.93;100.00
56006;BME280;41888;44.696;10.522;2023-09-19T01:40:07;100055.47;;;18.96;100.00
56006;BME280;41888;44.696;10.522;2023-09-19T01:42:51;100044.13;;;18.99;100.00
56006;BME280;41888;44.696;10.522;2023-09-19T01:48:38;100043.63;;;19.03;100.00
56006;BME280;41888;44.696;10.522;2023-09-19T01:51:10;100047.13;;;18.98;100.00
56006;BME280;41888;44.696;10.522;2023-09-19T01:56:21;100044.38;;;18.83;100.00
56006;BME280;41888;44.696;10.522;2023-09-19T01:58:51;100043.06;;;18.80;100.00
56006;BME280;41888;44.696;10.522;2023-09-19T02:01:23;100047.63;;;18.85;100.00
56006;BME280;41888;44.696;10.522;2023-09-19T02:03:50;100034.97;;;18.85;100.00
56006;BME280;41888;44.696;10.522;2023-09-19T02:06:18;100034.41;;;18.88;100.00
56006;BME280;41888;44.696;10.522;2023-09-19T02:08:45;100035.78;;;18.91;100.00
56006;BME280;41888;44.696;10.522;2023-09-19T02:11:13;100036.34;;;19.08;100.00
56006;BME280;41888;44.696;10.522;2023-09-19T02:13:40;100031.75;;;19.19;100.00
56006;BME280;41888;44.696;10.522;2023-09-19T02:16:07;100030.63;;;19.25;100.00
56006;BME280;41888;44.696;10.522;2023-09-19T02:18:35;100021.22;;;19.12;100.00
56006;BME280;41888;44.696;10.522;2023-09-19T02:21:02;100027.69;;;19.16;100.00
56006;BME280;41888;44.696;10.522;2023-09-19T02:23:30;100024.19;;;19.16;100.00
56006;BME280;41888;44.696;10.522;2023-09-19T02:25:56;100022.03;;;19.18;100.00
56006;BME280;41888;44.696;10.522;2023-09-19T02:28:29;100031.44;;;19.25;100.00
56006;BME280;41888;44.696;10.522;2023-09-19T02:31:01;100022.03;;;19.23;100.00
56006;BME280;41888;44.696;10.522;2023-09-19T02:33:28;100019.88;;;19.15;100.00
56006;BME280;41888;44.696;10.522;2023-09-19T02:35:58;100018.53;;;19.17;100.00
56006;BME280;41888;44.696;10.522;2023-09-19T02:38:25;100016.34;;;19.19;100.00
56006;BME280;41888;44.696;10.522;2023-09-19T02:40:52;100017.72;;;18.86;100.00
56006;BME280;41888;44.696;10.522;2023-09-19T02:43:21;100021.50;;;18.95;100.00
56006;BME280;41888;44.696;10.522;2023-09-19T02:45:48;100004.25;;;19.02;100.00
56006;BME280;41888;44.696;10.522;2023-09-19T02:48:19;100010.16;;;18.98;100.00
56006;BME280;41888;44.696;10.522;2023-09-19T02:50:46;100012.34;;;18.91;100.00
56006;BME280;41888;44.696;10.522;2023-09-19T02:53:12;100012.59;;;19.00;100.00
56006;BME280;41888;44.696;10.522;2023-09-19T02:55:39;100015.56;;;19.14;100.00
56006;BME280;41888;44.696;10.522;2023-09-19T02:58:07;100019.88;;;18.94;100.00
56006;BME280;41888;44.696;10.522;2023-09-19T03:00:40;100022.84;;;19.03;100.00
56006;BME280;41888;44.696;10.522;2023-09-19T03:03:08;100025.81;;;19.12;100.00
56006;BME280;41888;44.696;10.522;2023-09-19T03:05:34;100029.06;;;19.14;100.00
56006;BME280;41888;44.696;10.522;2023-09-19T03:08:01;100036.03;;;19.25;100.00
56006;BME280;41888;44.696;10.522;2023-09-19T03:10:28;100033.09;;;19.21;100.00
56006;BME280;41888;44.696;10.522;2023-09-19T03:12:55;100027.69;;;19.16;100.00
56006;BME280;41888;44.696;10.522;2023-09-19T03:15:21;100023.66;;;19.14;100.00
56006;BME280;41888;44.696;10.522;2023-09-19T03:17:48;100022.56;;;18.99;100.00
56006;BME280;41888;44.696;10.522;2023-09-19T03:20:15;100022.56;;;19.10;100.00
56006;BME280;41888;44.696;10.522;2023-09-19T03:22:45;100022.56;;;19.05;100.00
56006;BME280;41888;44.696;10.522;2023-09-19T03:25:12;100023.63;;;19.04;100.00
56006;BME280;41888;44.696;10.522;2023-09-19T03:27:41;100026.88;;;19.06;100.00
56006;BME280;41888;44.696;10.522;2023-09-19T03:30:08;100026.38;;;19.09;100.00
56006;BME280;41888;44.696;10.522;2023-09-19T03:32:47;100021.22;;;19.12;100.00
56006;BME280;41888;44.696;10.522;2023-09-19T03:35:16;100020.94;;;18.98;100.00
56006;BME280;41888;44.696;10.522;2023-09-19T03:37:43;100026.34;;;18.83;100.00
56006;BME280;41888;44.696;10.522;2023-09-19T03:40:10;100032.28;;;18.85;100.00
56006;BME280;41888;44.696;10.522;2023-09-19T03:42:41;100027.69;;;18.81;100.00
56006;BME280;41888;44.696;10.522;2023-09-19T03:45:09;100036.28;;;18.58;100.00
56006;BME280;41888;44.696;10.522;2023-09-19T03:47:38;100047.56;;;18.49;100.00
56006;BME280;41888;44.696;10.522;2023-09-19T03:50:06;100041.88;;;18.51;100.00
56006;BME280;41888;44.696;10.522;2023-09-19T03:52:37;100044.63;;;18.56;100.00
56006;BME280;41888;44.696;10.522;2023-09-19T03:55:03;100052.44;;;18.63;100.00
56006;BME280;41888;44.696;10.522;2023-09-19T03:57:30;100044.91;;;18.60;100.00
56006;BME280;41888;44.696;10.522;2023-09-19T03:59:56;100046.25;;;18.62;100.00
56006;BME280;41888;44.696;10.522;2023-09-19T04:02:23;100048.13;;;18.67;100.00
56006;BME280;41888;44.696;10.522;2023-09-19T04:04:51;100049.22;;;18.55;100.00
56006;BME280;41888;44.696;10.522;2023-09-19T04:07:17;100052.94;;;18.44;100.00
56006;BME280;41888;44.696;10.522;2023-09-19T04:09:45;100053.75;;;18.45;100.00
56006;BME280;41888;44.696;10.522;2023-09-19T04:12:11;100059.06;;;18.35;100.00
56006;BME280;41888;44.696;10.522;2023-09-19T04:14:38;100051.56;;;18.42;100.00
56006;BME280;41888;44.696;10.522;2023-09-19T04:17:05;100052.13;;;18.44;100.00
56006;BME280;41888;44.696;10.522;2023-09-19T04:19:31;100047.72;;;18.18;100.00
56006;BME280;41888;44.696;10.522;2023-09-19T04:21:57;100039.31;;;18.09;100.00
56006;BME280;41888;44.696;10.522;2023-09-19T04:24:23;100043.38;;;18.11;100.00
56006;BME280;41888;44.696;10.522;2023-09-19T04:26:50;100038.56;;;18.13;100.00
56006;BME280;41888;44.696;10.522;2023-09-19T04:29:16;100041.69;;;17.90;100.00
56006;BME280;41888;44.696;10.522;2023-09-19T04:31:43;100052.50;;;18.00;100.00
56006;BME280;41888;44.696;10.522;2023-09-19T04:34:12;100050.00;;;17.89;100.00
56006;BME280;41888;44.696;10.522;2023-09-19T04:36:41;100052.44;;;17.90;100.00
56006;BME280;41888;44.696;10.522;2023-09-19T04:39:08;100044.38;;;17.95;100.00
56006;BME280;41888;44.696;10.522;2023-09-19T04:41:34;100053.03;;;17.97;100.00
56006;BME280;41888;44.696;10.522;2023-09-19T04:44:01;100053.81;;;17.98;100.00
56006;BME280;41888;44.696;10.522;2023-09-19T04:46:27;100053.47;;;17.84;100.00
56006;BME280;41888;44.696;10.522;2023-09-19T04:48:53;100051.56;;;17.80;100.00
56006;BME280;41888;44.696;10.522;2023-09-19T04:51:19;100049.50;;;17.50;100.00
56006;BME280;41888;44.696;10.522;2023-09-19T04:53:46;100046.03;;;17.54;100.00
56006;BME280;41888;44.696;10.522;2023-09-19T04:56:14;100044.84;;;17.82;100.00
56006;BME280;41888;44.696;10.522;2023-09-19T04:58:41;100053.78;;;17.93;100.00
56006;BME280;41888;44.696;10.522;2023-09-19T05:01:07;100051.31;;;17.81;100.00
56006;BME280;41888;44.696;10.522;2023-09-19T05:03:37;100054.88;;;17.92;100.00
56006;BME280;41888;44.696;10.522;2023-09-19T05:06:04;100064.31;;;17.99;100.00
56006;BME280;41888;44.696;10.522;2023-09-19T05:08:31;100076.16;;;17.98;100.00
56006;BME280;41888;44.696;10.522;2023-09-19T05:10:57;100068.69;;;18.10;100.00
56006;BME280;41888;44.696;10.522;2023-09-19T05:13:23;100067.56;;;18.01;100.00
56006;BME280;41888;44.696;10.522;2023-09-19T05:15:50;100082.91;;;18.01;100.00
56006;BME280;41888;44.696;10.522;2023-09-19T05:18:17;100082.34;;;17.99;100.00
56006;BME280;41888;44.696;10.522;2023-09-19T05:20:43;100087.25;;;18.07;100.00
56006;BME280;41888;44.696;10.522;2023-09-19T05:23:09;100095.56;;;18.00;100.00
56006;BME280;41888;44.696;10.522;2023-09-19T05:25:39;100103.72;;;18.15;100.00
56006;BME280;41888;44.696;10.522;2023-09-19T05:28:06;100096.84;;;18.45;100.00
56006;BME280;41888;44.696;10.522;2023-09-19T05:30:33;100115.06;;;19.05;100.00
56006;BME280;41888;44.696;10.522;2023-09-19T05:33:02;100121.50;;;19.95;100.00
56006;BME280;41888;44.696;10.522;2023-09-19T05:35:30;100124.56;;;20.58;100.00
56006;BME280;41888;44.696;10.522;2023-09-19T05:37:57;100127.53;;;21.05;100.00
56006;BME280;41888;44.696;10.522;2023-09-19T05:40:24;100126.53;;;21.35;100.00
56006;BME280;41888;44.696;10.522;2023-09-19T05:42:51;100135.91;;;22.06;100.00
56006;BME280;41888;44.696;10.522;2023-09-19T05:45:17;100147.47;;;22.59;100.00
56006;BME280;41888;44.696;10.522;2023-09-19T05:47:48;100151.66;;;23.12;100.00
56006;BME280;41888;44.696;10.522;2023-09-19T05:50:15;100166.88;;;24.11;100.00
56006;BME280;41888;44.696;10.522;2023-09-19T05:52:42;100169.34;;;24.53;100.00
56006;BME280;41888;44.696;10.522;2023-09-19T05:55:10;100176.06;;;24.83;100.00
56006;BME280;41888;44.696;10.522;2023-09-19T05:57:37;100177.97;;;25.32;100.00
56006;BME280;41888;44.696;10.522;2023-09-19T06:00:08;100184.53;;;25.76;100.00
56006;BME280;41888;44.696;10.522;2023-09-19T06:02:37;100184.56;;;26.37;100.00
56006;BME280;41888;44.696;10.522;2023-09-19T06:05:05;100186.34;;;26.90;100.00
56006;BME280;41888;44.696;10.522;2023-09-19T06:07:32;100189.38;;;26.88;100.00
56006;BME280;41888;44.696;10.522;2023-09-19T06:10:06;100199.84;;;27.81;99.35
56006;BME280;41888;44.696;10.522;2023-09-19T06:12:43;100203.63;;;28.14;93.97
56006;BME280;41888;44.696;10.522;2023-09-19T06:15:13;100198.34;;;28.01;94.37
56006;BME280;41888;44.696;10.522;2023-09-19T06:17:49;100205.84;;;28.30;92.44
56006;BME280;41888;44.696;10.522;2023-09-19T06:20:16;100208.38;;;28.35;91.43
56006;BME280;41888;44.696;10.522;2023-09-19T06:22:43;100199.69;;;27.86;94.16
56006;BME280;41888;44.696;10.522;2023-09-19T06:25:11;100209.88;;;28.24;92.91
56006;BME280;41888;44.696;10.522;2023-09-19T06:27:39;100210.72;;;28.91;88.83
56006;BME280;41888;44.696;10.522;2023-09-19T06:30:09;100225.22;;;29.75;84.68
56006;BME280;41888;44.696;10.522;2023-09-19T06:32:37;100217.91;;;30.12;83.38
56006;BME280;41888;44.696;10.522;2023-09-19T06:35:04;100217.22;;;30.15;81.45
56006;BME280;41888;44.696;10.522;2023-09-19T06:37:33;100222.66;;;29.91;82.08
56006;BME280;41888;44.696;10.522;2023-09-19T06:40:01;100225.28;;;29.66;82.53
56006;BME280;41888;44.696;10.522;2023-09-19T06:42:27;100220.78;;;30.28;79.30
56006;BME280;41888;44.696;10.522;2023-09-19T06:44:54;100223.13;;;29.72;79.69
56006;BME280;41888;44.696;10.522;2023-09-19T06:47:20;100221.25;;;29.85;80.11
56006;BME280;41888;44.696;10.522;2023-09-19T06:49:47;100222.88;;;30.91;75.65
56006;BME280;41888;44.696;10.522;2023-09-19T06:52:14;100215.59;;;32.19;70.27
56006;BME280;41888;44.696;10.522;2023-09-19T06:54:41;100211.84;;;32.11;68.96
56006;BME280;41888;44.696;10.522;2023-09-19T06:57:07;100215.91;;;31.06;73.09
56006;BME280;41888;44.696;10.522;2023-09-19T06:59:36;100220.97;;;32.31;68.36
56006;BME280;41888;44.696;10.522;2023-09-19T07:02:03;100229.50;;;32.26;68.39
56006;BME280;41888;44.696;10.522;2023-09-19T07:04:32;100226.91;;;30.57;75.40
56006;BME280;41888;44.696;10.522;2023-09-19T07:06:58;100225.75;;;30.71;76.39
56006;BME280;41888;44.696;10.522;2023-09-19T07:09:24;100232.56;;;31.25;73.87
56006;BME280;41888;44.696;10.522;2023-09-19T07:11:53;100240.28;;;31.60;71.71
56006;BME280;41888;44.696;10.522;2023-09-19T07:14:20;100238.00;;;30.49;76.57
56006;BME280;41888;44.696;10.522;2023-09-19T07:16:46;100230.75;;;29.25;84.13
56006;BME280;41888;44.696;10.522;2023-09-19T07:19:13;100227.97;;;28.45;90.12
56006;BME280;41888;44.696;10.522;2023-09-19T07:21:41;100230.81;;;28.11;93.35
56006;BME280;41888;44.696;10.522;2023-09-19T07:24:08;100232.16;;;27.79;96.66
56006;BME280;41888;44.696;10.522;2023-09-19T07:26:34;100236.69;;;27.49;99.26
56006;BME280;41888;44.696;10.522;2023-09-19T07:29:01;100232.00;;;27.15;100.00
56006;BME280;41888;44.696;10.522;2023-09-19T07:31:32;100221.72;;;27.12;100.00
56006;BME280;41888;44.696;10.522;2023-09-19T07:33:59;100225.59;;;26.72;100.00
56006;BME280;41888;44.696;10.522;2023-09-19T07:36:25;100233.28;;;26.61;100.00
56006;BME280;41888;44.696;10.522;2023-09-19T07:38:51;100229.13;;;26.64;100.00
56006;BME280;41888;44.696;10.522;2023-09-19T07:41:18;100236.50;;;26.72;100.00
56006;BME280;41888;44.696;10.522;2023-09-19T07:43:44;100239.88;;;26.69;100.00
56006;BME280;41888;44.696;10.522;2023-09-19T07:46:10;100235.69;;;26.63;100.00
56006;BME280;41888;44.696;10.522;2023-09-19T07:48:37;100230.53;;;26.53;100.00
56006;BME280;41888;44.696;10.522;2023-09-19T07:51:08;100230.03;;;26.51;100.00
56006;BME280;41888;44.696;10.522;2023-09-19T07:53:37;100232.56;;;26.16;100.00
56006;BME280;41888;44.696;10.522;2023-09-19T07:56:05;100238.78;;;26.39;100.00
56006;BME280;41888;44.696;10.522;2023-09-19T07:58:31;100237.38;;;26.19;100.00
56006;BME280;41888;44.696;10.522;2023-09-19T08:01:10;100245.91;;;26.48;100.00
56006;BME280;41888;44.696;10.522;2023-09-19T08:03:36;100247.50;;;26.19;100.00
56006;BME280;41888;44.696;10.522;2023-09-19T08:06:07;100240.38;;;26.31;100.00
56006;BME280;41888;44.696;10.522;2023-09-19T08:08:34;100244.06;;;26.27;100.00
56006;BME280;41888;44.696;10.522;2023-09-19T08:11:04;100244.84;;;26.67;100.00
56006;BME280;41888;44.696;10.522;2023-09-19T08:13:41;100233.25;;;26.53;100.00
56006;BME280;41888;44.696;10.522;2023-09-19T08:16:13;100231.09;;;26.32;100.00
56006;BME280;41888;44.696;10.522;2023-09-19T08:18:41;100232.50;;;26.30;100.00
56006;BME280;41888;44.696;10.522;2023-09-19T08:21:08;100233.94;;;26.27;100.00
56006;BME280;41888;44.696;10.522;2023-09-19T08:23:39;100244.69;;;26.72;100.00
56006;BME280;41888;44.696;10.522;2023-09-19T08:26:07;100249.16;;;26.99;100.00
56006;BME280;41888;44.696;10.522;2023-09-19T08:28:37;100239.22;;;27.11;100.00
56006;BME280;41888;44.696;10.522;2023-09-19T08:31:08;100238.22;;;26.90;100.00
56006;BME280;41888;44.696;10.522;2023-09-19T08:33:35;100229.63;;;26.74;100.00
56006;BME280;41888;44.696;10.522;2023-09-19T08:36:03;100237.53;;;26.84;100.00
56006;BME280;41888;44.696;10.522;2023-09-19T08:38:34;100242.06;;;26.98;100.00
56006;BME280;41888;44.696;10.522;2023-09-19T08:41:05;100238.84;;;26.87;100.00
56006;BME280;41888;44.696;10.522;2023-09-19T08:43:31;100234.22;;;26.96;100.00
56006;BME280;41888;44.696;10.522;2023-09-19T08:46:20;100233.63;;;27.34;100.00
56006;BME280;41888;44.696;10.522;2023-09-19T08:51:26;100229.91;;;27.29;100.00
56006;BME280;41888;44.696;10.522;2023-09-19T08:54:00;100230.25;;;27.80;100.00
56006;BME280;41888;44.696;10.522;2023-09-19T08:56:29;100236.16;;;28.16;96.05
56006;BME280;41888;44.696;10.522;2023-09-19T08:59:02;100240.34;;;27.96;96.49
56006;BME280;41888;44.696;10.522;2023-09-19T09:01:30;100238.38;;;28.14;96.51
56006;BME280;41888;44.696;10.522;2023-09-19T09:03:58;100241.81;;;27.77;98.84
56006;BME280;41888;44.696;10.522;2023-09-19T09:06:25;100242.66;;;27.60;99.43
56006;BME280;41888;44.696;10.522;2023-09-19T09:08:54;100243.59;;;27.64;97.14
56006;BME280;41888;44.696;10.522;2023-09-19T09:11:21;100246.13;;;27.35;99.99
56006;BME280;41888;44.696;10.522;2023-09-19T09:13:49;100244.03;;;27.14;100.00
56006;BME280;41888;44.696;10.522;2023-09-19T09:16:15;100242.31;;;27.53;100.00
56006;BME280;41888;44.696;10.522;2023-09-19T09:18:45;100240.88;;;27.64;100.00
56006;BME280;41888;44.696;10.522;2023-09-19T09:21:12;100249.97;;;28.20;98.36
56006;BME280;41888;44.696;10.522;2023-09-19T09:23:39;100245.69;;;28.48;95.51
56006;BME280;41888;44.696;10.522;2023-09-19T09:26:05;100245.09;;;28.80;91.26
56006;BME280;41888;44.696;10.522;2023-09-19T09:28:34;100241.69;;;28.83;90.58
56006;BME280;41888;44.696;10.522;2023-09-19T09:31:02;100235.38;;;28.53;93.20
56006;BME280;41888;44.696;10.522;2023-09-19T09:33:34;100242.94;;;28.48;94.02
56006;BME280;41888;44.696;10.522;2023-09-19T09:36:01;100238.22;;;28.66;94.58
56006;BME280;41888;44.696;10.522;2023-09-19T09:38:46;100235.69;;;28.90;92.24
56006;BME280;41888;44.696;10.522;2023-09-19T09:41:16;100233.94;;;28.85;93.71
56006;BME280;41888;44.696;10.522;2023-09-19T09:43:53;100240.47;;;28.93;93.04
56006;BME280;41888;44.696;10.522;2023-09-19T09:46:25;100237.84;;;28.67;94.88
56006;BME280;41888;44.696;10.522;2023-09-19T09:51:45;100232.78;;;27.93;99.03
56006;BME280;41888;44.696;10.522;2023-09-19T09:54:24;100235.50;;;27.93;100.00
56006;BME280;41888;44.696;10.522;2023-09-19T09:56:55;100231.69;;;27.77;100.00
56006;BME280;41888;44.696;10.522;2023-09-19T09:59:48;100229.94;;;27.81;99.97
56006;BME280;41888;44.696;10.522;2023-09-19T10:04:57;100243.06;;;28.22;97.66
56006;BME280;41888;44.696;10.522;2023-09-19T10:07:41;100236.06;;;28.42;94.66
56006;BME280;41888;44.696;10.522;2023-09-19T10:10:13;100235.13;;;28.29;95.72
56006;BME280;41888;44.696;10.522;2023-09-19T10:12:44;100233.69;;;28.61;93.93
56006;BME280;41888;44.696;10.522;2023-09-19T10:15:18;100238.25;;;28.02;96.28
56006;BME280;41888;44.696;10.522;2023-09-19T10:17:47;100224.31;;;27.52;99.30
56006;BME280;41888;44.696;10.522;2023-09-19T10:20:15;100227.97;;;27.90;98.28
56006;BME280;41888;44.696;10.522;2023-09-19T10:23:00;100241.13;;;28.14;97.55
56006;BME280;41888;44.696;10.522;2023-09-19T10:25:27;100241.88;;;28.32;96.91
56006;BME280;41888;44.696;10.522;2023-09-19T10:28:01;100244.13;;;28.38;97.16
56006;BME280;41888;44.696;10.522;2023-09-19T10:30:33;100232.38;;;28.29;96.73
56006;BME280;41888;44.696;10.522;2023-09-19T10:33:03;100227.16;;;28.45;95.61
56006;BME280;41888;44.696;10.522;2023-09-19T10:35:32;100239.69;;;29.43;89.92
56006;BME280;41888;44.696;10.522;2023-09-19T10:38:04;100242.56;;;29.46;86.94
56006;BME280;41888;44.696;10.522;2023-09-19T10:40:33;100244.44;;;29.54;86.11
56006;BME280;41888;44.696;10.522;2023-09-19T10:43:05;100226.22;;;28.41;92.06
56006;BME280;41888;44.696;10.522;2023-09-19T10:45:35;100228.66;;;28.80;90.65
56006;BME280;41888;44.696;10.522;2023-09-19T10:48:06;100233.56;;;29.78;85.04
56006;BME280;41888;44.696;10.522;2023-09-19T10:53:28;100221.69;;;30.07;83.14
56006;BME280;41888;44.696;10.522;2023-09-19T10:55:59;100220.38;;;29.39;85.18
56006;BME280;41888;44.696;10.522;2023-09-19T10:58:31;100221.94;;;28.98;87.12
56006;BME280;41888;44.696;10.522;2023-09-19T11:01:00;100208.44;;;28.55;90.48
56006;BME280;41888;44.696;10.522;2023-09-19T11:03:41;100213.03;;;28.43;91.96
56006;BME280;41888;44.696;10.522;2023-09-19T11:06:15;100212.41;;;29.46;85.98
56006;BME280;41888;44.696;10.522;2023-09-19T11:09:02;100216.44;;;28.98;86.46
56006;BME280;41888;44.696;10.522;2023-09-19T11:11:47;100213.25;;;28.96;87.02
56006;BME280;41888;44.696;10.522;2023-09-19T11:17:33;100201.50;;;29.58;80.24
56006;BME280;41888;44.696;10.522;2023-09-19T11:30:39;100211.31;;;30.86;75.98
56006;BME280;41888;44.696;10.522;2023-09-19T11:41:37;100207.31;;;30.95;72.70
56006;BME280;41888;44.696;10.522;2023-09-19T11:49:19;100201.00;;;30.83;71.40
56006;BME280;41888;44.696;10.522;2023-09-19T11:51:52;100201.78;;;29.77;76.08
56006;BME280;41888;44.696;10.522;2023-09-19T11:54:18;100199.09;;;30.71;74.58
56006;BME280;41888;44.696;10.522;2023-09-19T11:56:49;100194.59;;;30.30;74.50
56006;BME280;41888;44.696;10.522;2023-09-19T11:59:23;100189.91;;;30.06;76.71
56006;BME280;41888;44.696;10.522;2023-09-19T12:01:54;100187.78;;;30.60;74.70
56006;BME280;41888;44.696;10.522;2023-09-19T12:04:43;100191.16;;;29.22;80.40
56006;BME280;41888;44.696;10.522;2023-09-19T12:07:11;100185.44;;;28.86;82.02
56006;BME280;41888;44.696;10.522;2023-09-19T12:09:45;100189.44;;;29.30;80.63
56006;BME280;41888;44.696;10.522;2023-09-19T12:12:28;100183.75;;;29.76;77.83
56006;BME280;41888;44.696;10.522;2023-09-19T12:14:56;100176.06;;;29.70;78.35
56006;BME280;41888;44.696;10.522;2023-09-19T12:17:37;100169.31;;;30.37;75.79
56006;BME280;41888;44.696;10.522;2023-09-19T12:20:05;100171.50;;;30.07;77.30
56006;BME280;41888;44.696;10.522;2023-09-19T12:22:49;100167.63;;;29.75;78.04
56006;BME280;41888;44.696;10.522;2023-09-19T12:25:16;100165.75;;;29.55;77.85
56006;BME280;41888;44.696;10.522;2023-09-19T12:27:44;100167.59;;;29.96;75.80
56006;BME280;41888;44.696;10.522;2023-09-19T12:30:13;100167.63;;;30.56;72.68
56006;BME280;41888;44.696;10.522;2023-09-19T12:32:48;100164.16;;;31.08;70.48
56006;BME280;41888;44.696;10.522;2023-09-19T12:35:34;100160.66;;;30.47;70.31
56006;BME280;41888;44.696;10.522;2023-09-19T12:38:01;100156.53;;;30.65;70.29
56006;BME280;41888;44.696;10.522;2023-09-19T12:40:30;100158.47;;;30.16;72.69
56006;BME280;41888;44.696;10.522;2023-09-19T12:42:59;100156.28;;;30.21;72.94
56006;BME280;41888;44.696;10.522;2023-09-19T12:45:29;100152.38;;;29.98;72.86
56006;BME280;41888;44.696;10.522;2023-09-19T12:51:07;100156.63;;;30.32;72.03
56006;BME280;41888;44.696;10.522;2023-09-19T12:53:45;100152.31;;;30.55;70.24
56006;BME280;41888;44.696;10.522;2023-09-19T12:56:15;100153.19;;;30.11;73.43
56006;BME280;41888;44.696;10.522;2023-09-19T12:58:58;100150.22;;;30.04;74.02
56006;BME280;41888;44.696;10.522;2023-09-19T13:01:29;100143.59;;;30.05;74.14
56006;BME280;41888;44.696;10.522;2023-09-19T13:04:21;100144.84;;;29.62;75.08
56006;BME280;41888;44.696;10.522;2023-09-19T13:06:55;100144.41;;;29.60;75.01
56006;BME280;41888;44.696;10.522;2023-09-19T13:09:27;100139.25;;;30.28;73.22
56006;BME280;41888;44.696;10.522;2023-09-19T13:12:05;100138.22;;;30.08;73.69
56006;BME280;41888;44.696;10.522;2023-09-19T13:15:08;100137.66;;;30.39;71.12
56006;BME280;41888;44.696;10.522;2023-09-19T13:17:49;100136.59;;;29.95;72.15
56006;BME280;41888;44.696;10.522;2023-09-19T13:22:54;100143.81;;;29.67;74.47
56006;BME280;41888;44.696;10.522;2023-09-19T13:25:37;100135.56;;;30.00;72.81
56006;BME280;41888;44.696;10.522;2023-09-19T13:28:06;100136.69;;;29.87;72.70
56006;BME280;41888;44.696;10.522;2023-09-19T13:30:32;100136.03;;;30.14;72.11
56006;BME280;41888;44.696;10.522;2023-09-19T13:33:07;100137.19;;;30.61;68.84
56006;BME280;41888;44.696;10.522;2023-09-19T13:35:35;100143.31;;;30.95;66.01
56006;BME280;41888;44.696;10.522;2023-09-19T13:38:04;100141.91;;;31.13;66.33
56006;BME280;41888;44.696;10.522;2023-09-19T13:40:32;100137.78;;;31.19;65.65
56006;BME280;41888;44.696;10.522;2023-09-19T13:43:01;100133.47;;;31.34;63.76
56006;BME280;41888;44.696;10.522;2023-09-19T13:45:27;100134.38;;;31.38;62.89
56006;BME280;41888;44.696;10.522;2023-09-19T13:47:56;100128.25;;;31.44;64.08
56006;BME280;41888;44.696;10.522;2023-09-19T13:50:25;100130.69;;;31.18;64.68
56006;BME280;41888;44.696;10.522;2023-09-19T13:52:52;100134.25;;;30.54;65.82